Terminal Aerodrome Forecast
Issued by NWS

Home | Current Version | Previous Version | Text Only | Print | Product List | Glossary On
Versions: 1 2 3 4 5 6 7 8 9 10 11
000
FTUS43 KTOP 281700
TAFMHK
TAF
KMHK 281720Z 2818/2918 20007KT P6SM SKC
     FM290100 14003KT P6SM SCT150
     FM291300 05007KT P6SM OVC120=

USA.gov is the U.S. government's official web portal to all federal, state and local government web resources and services.